createdAt,value
2017-08-24T00:00:07.416Z,99.99
2017-08-24T00:05:03.900Z,99.99
2017-08-24T00:10:00.085Z,99.99
2017-08-24T00:14:55.938Z,99.99
2017-08-24T00:19:51.696Z,99.99
2017-08-24T00:24:48.947Z,99.99
2017-08-24T00:29:44.550Z,99.99
2017-08-24T00:34:40.930Z,99.99
2017-08-24T00:39:36.953Z,99.99
2017-08-24T00:44:34.059Z,99.99
2017-08-24T00:49:30.549Z,99.99
2017-08-24T00:54:26.184Z,99.99
2017-08-24T00:59:22.911Z,99.99
2017-08-24T01:04:19.316Z,99.99
2017-08-24T01:09:16.139Z,99.99
2017-08-24T01:14:11.810Z,99.99
2017-08-24T01:19:07.870Z,99.99
2017-08-24T01:24:03.768Z,99.99
2017-08-24T01:28:59.700Z,99.99
2017-08-24T01:33:56.537Z,99.99
2017-08-24T01:38:51.980Z,99.99
2017-08-24T01:43:47.774Z,99.99
2017-08-24T01:48:44.096Z,99.99
2017-08-24T01:53:40.008Z,99.99
2017-08-24T01:58:35.873Z,99.99
2017-08-24T02:03:31.641Z,99.99
2017-08-24T02:08:27.924Z,99.99
2017-08-24T02:13:24.132Z,99.99
2017-08-24T02:18:20.950Z,99.99
2017-08-24T02:23:16.610Z,99.99
2017-08-24T02:28:12.918Z,99.99
2017-08-24T02:33:09.919Z,99.99
2017-08-24T02:38:06.686Z,99.99
2017-08-24T02:43:02.184Z,99.99
2017-08-24T02:47:59.216Z,99.99
2017-08-24T02:52:55.006Z,99.99
2017-08-24T02:57:51.812Z,99.99
2017-08-24T03:02:48.342Z,99.99
2017-08-24T03:07:44.387Z,99.99
2017-08-24T03:12:40.113Z,99.99
2017-08-24T03:17:36.040Z,99.99
2017-08-24T03:22:31.935Z,99.99
2017-08-24T03:27:27.793Z,99.99
2017-08-24T03:32:24.877Z,99.99
2017-08-24T03:37:20.303Z,99.99
2017-08-24T03:42:16.186Z,99.99
2017-08-24T03:47:12.078Z,99.99
2017-08-24T03:52:07.929Z,99.99
2017-08-24T03:57:04.238Z,99.99
2017-08-24T04:02:00.085Z,99.99
2017-08-24T04:06:57.022Z,99.99
2017-08-24T04:11:52.564Z,99.99
2017-08-24T04:16:48.403Z,99.99
2017-08-24T04:21:45.123Z,99.99
2017-08-24T04:26:41.183Z,99.99
2017-08-24T04:31:37.031Z,99.99
2017-08-24T04:36:32.803Z,99.99
2017-08-24T04:41:28.680Z,99.99
2017-08-24T04:46:26.906Z,99.99
2017-08-24T04:51:22.160Z,99.99
2017-08-24T04:56:18.089Z,99.99
2017-08-24T05:01:13.805Z,99.99
2017-08-24T05:06:10.115Z,99.99
2017-08-24T05:11:06.054Z,99.99
2017-08-24T05:16:01.982Z,99.99
2017-08-24T05:20:57.553Z,99.99
2017-08-24T05:25:53.781Z,99.99
2017-08-24T05:30:49.717Z,99.99
2017-08-24T05:35:45.720Z,99.99
2017-08-24T05:40:41.688Z,99.99
2017-08-24T05:45:38.821Z,99.99
2017-08-24T05:50:34.417Z,99.99
2017-08-24T05:55:30.531Z,99.99
2017-08-24T06:00:26.412Z,99.99
2017-08-24T06:05:23.122Z,99.99
2017-08-24T06:10:18.943Z,99.99
2017-08-24T06:15:14.844Z,99.99
2017-08-24T06:20:10.831Z,99.99
2017-08-24T06:25:06.917Z,99.99
2017-08-24T06:30:02.853Z,99.99
2017-08-24T06:34:58.462Z,99.99
2017-08-24T06:39:54.388Z,99.99
2017-08-24T06:44:51.372Z,99.99
2017-08-24T06:49:46.988Z,99.99
2017-08-24T06:54:43.689Z,99.99
2017-08-24T06:59:40.492Z,99.99
2017-08-24T07:04:37.502Z,99.99
2017-08-24T07:09:33.950Z,99.99
2017-08-24T07:14:29.617Z,99.99
2017-08-24T07:19:25.225Z,99.99
2017-08-24T07:24:21.446Z,99.99
2017-08-24T07:29:17.571Z,99.99
2017-08-24T07:34:14.560Z,99.99
2017-08-24T07:39:10.738Z,99.99
2017-08-24T07:44:06.665Z,99.99
2017-08-24T07:49:02.672Z,99.99
2017-08-24T07:53:59.753Z,99.99
2017-08-24T07:58:55.166Z,99.99
2017-08-24T08:03:51.305Z,99.99
2017-08-24T08:08:48.486Z,99.99
2017-08-24T08:13:44.156Z,99.99
2017-08-24T08:18:40.097Z,99.99
2017-08-24T08:23:37.101Z,99.99
2017-08-24T08:28:32.974Z,99.99
2017-08-24T08:33:29.089Z,99.99
2017-08-24T08:38:25.612Z,99.99
2017-08-24T08:43:23.416Z,99.99
2017-08-24T08:48:19.544Z,99.99
2017-08-24T08:53:16.684Z,99.99
2017-08-24T08:58:12.576Z,99.99
2017-08-24T09:03:08.367Z,99.99
2017-08-24T09:08:04.105Z,99.99
2017-08-24T09:13:00.330Z,99.99
2017-08-24T09:17:56.508Z,99.99
2017-08-24T09:22:52.442Z,99.99
2017-08-24T09:27:49.485Z,99.99
2017-08-24T09:32:46.172Z,99.99
2017-08-24T09:37:41.820Z,99.99
2017-08-24T09:42:39.116Z,99.99
2017-08-24T09:47:36.053Z,99.99
2017-08-24T09:52:32.018Z,99.99
2017-08-24T09:57:28.491Z,99.99
2017-08-24T10:02:24.384Z,99.99
2017-08-24T10:07:20.630Z,99.99
2017-08-24T10:12:16.279Z,99.99
2017-08-24T10:17:13.130Z,99.99
2017-08-24T10:22:10.588Z,99.99
2017-08-24T10:27:05.989Z,99.99
2017-08-24T10:32:02.886Z,99.99
2017-08-24T10:36:58.869Z,99.99
2017-08-24T10:41:54.930Z,99.99
2017-08-24T10:46:50.621Z,99.99
2017-08-24T10:51:46.889Z,99.99
2017-08-24T10:56:42.768Z,99.99
2017-08-24T11:01:38.271Z,99.99
2017-08-24T11:06:34.790Z,99.99
2017-08-24T11:11:32.746Z,99.99
2017-08-24T11:16:27.758Z,99.99
2017-08-24T11:21:24.305Z,99.99
2017-08-24T11:26:20.131Z,99.99
2017-08-24T11:31:17.591Z,99.99
2017-08-24T11:36:13.359Z,99.99
2017-08-24T11:41:09.726Z,99.99
2017-08-24T11:46:07.084Z,99.99
2017-08-24T11:51:04.776Z,99.99
2017-08-24T11:56:02.366Z,99.99
2017-08-24T12:00:59.103Z,99.99
2017-08-24T12:05:55.275Z,99.99
2017-08-24T12:10:50.174Z,99.99
2017-08-24T12:15:47.163Z,99.99
2017-08-24T12:20:41.030Z,99.99
2017-08-24T12:25:35.982Z,99.99
2017-08-24T12:30:33.406Z,99.99
2017-08-24T12:35:28.773Z,99.99
2017-08-24T12:40:24.326Z,99.99
2017-08-24T12:45:20.240Z,99.99
2017-08-24T12:50:17.084Z,99.99
2017-08-24T12:55:12.662Z,99.99
2017-08-24T13:00:09.255Z,99.99
2017-08-24T13:05:06.393Z,99.99
2017-08-24T13:10:02.218Z,99.99
2017-08-24T13:14:59.234Z,99.99
2017-08-24T13:19:56.373Z,98.78
2017-08-24T13:24:52.165Z,97.04
2017-08-24T13:29:48.040Z,98.97
2017-08-24T13:34:43.781Z,98.97
2017-08-24T13:39:39.913Z,96.46
2017-08-24T13:44:36.636Z,94.62
2017-08-24T13:49:33.147Z,95.88
2017-08-24T13:54:30.094Z,95.68
2017-08-24T13:59:25.968Z,94.62
2017-08-24T14:04:21.886Z,96.94
2017-08-24T14:09:18.916Z,94.53
2017-08-24T14:14:14.985Z,95.11
2017-08-24T14:19:11.968Z,92.50
2017-08-24T14:24:07.645Z,91.15
2017-08-24T14:29:03.868Z,90.61
2017-08-24T14:34:00.218Z,86.79
2017-08-24T14:38:56.672Z,83.80
2017-08-24T14:43:52.843Z,82.25
2017-08-24T14:48:49.743Z,82.54
2017-08-24T14:53:45.477Z,82.35
2017-08-24T14:58:41.615Z,84.95
2017-08-24T15:03:37.323Z,86.75
2017-08-24T15:08:33.140Z,87.38
2017-08-24T15:13:29.123Z,87.29
2017-08-24T15:18:24.914Z,87.67
2017-08-24T15:23:20.797Z,87.48
2017-08-24T15:28:16.798Z,87.29
2017-08-24T15:33:12.738Z,86.85
2017-08-24T15:38:08.906Z,84.00
2017-08-24T15:43:05.052Z,82.94
2017-08-24T15:48:00.972Z,83.72
2017-08-24T15:52:58.972Z,85.36
2017-08-24T15:57:54.436Z,85.45
2017-08-24T16:02:50.203Z,84.97
2017-08-24T16:07:45.817Z,87.48
2017-08-24T16:12:43.645Z,88.11
2017-08-24T16:17:39.076Z,86.86
2017-08-24T16:22:34.946Z,87.15
2017-08-24T16:27:30.814Z,87.92
2017-08-24T16:32:27.601Z,88.50
2017-08-24T16:37:24.243Z,88.21
2017-08-24T16:42:19.901Z,88.98
2017-08-24T16:47:15.779Z,88.59
2017-08-24T16:52:11.713Z,88.40
2017-08-24T16:57:08.478Z,88.50
2017-08-24T17:02:03.949Z,88.31
2017-08-24T17:06:59.710Z,88.45
2017-08-24T17:11:56.495Z,89.61
2017-08-24T17:16:53.181Z,90.19
2017-08-24T17:21:50.069Z,90.58
2017-08-24T17:26:45.401Z,90.72
2017-08-24T17:31:41.569Z,91.40
2017-08-24T17:36:38.447Z,92.56
2017-08-24T17:41:34.985Z,93.13
2017-08-24T17:46:30.512Z,93.91
2017-08-24T17:51:27.356Z,94.29
2017-08-24T17:56:22.960Z,95.31
2017-08-24T18:01:18.854Z,95.50
2017-08-24T18:06:14.828Z,96.94
2017-08-24T18:11:10.872Z,97.91
2017-08-24T18:16:06.697Z,98.20
2017-08-24T18:21:02.574Z,98.87
2017-08-24T18:25:58.241Z,99.99
2017-08-24T18:30:54.159Z,99.99
2017-08-24T18:35:49.961Z,99.99
2017-08-24T18:40:47.268Z,99.99
2017-08-24T18:45:42.743Z,99.99
2017-08-24T18:50:38.732Z,99.99
2017-08-24T18:55:35.591Z,99.99
2017-08-24T19:00:31.240Z,99.99
2017-08-24T19:05:27.069Z,99.99
2017-08-24T19:10:23.715Z,99.99
2017-08-24T19:15:20.176Z,99.99
2017-08-24T19:20:17.104Z,99.99
2017-08-24T19:25:12.648Z,99.99
2017-08-24T19:30:08.688Z,99.99
2017-08-24T19:35:04.517Z,99.99
2017-08-24T19:40:00.381Z,99.99
2017-08-24T19:44:56.338Z,99.99
2017-08-24T19:49:52.274Z,99.99
2017-08-24T19:54:48.202Z,99.99
2017-08-24T19:59:44.067Z,99.99
2017-08-24T20:04:39.911Z,99.99
2017-08-24T20:09:36.726Z,99.99
2017-08-24T20:14:33.714Z,99.99
2017-08-24T20:19:30.277Z,99.99
2017-08-24T20:24:26.795Z,99.99
2017-08-24T20:29:22.748Z,99.99
2017-08-24T20:34:18.548Z,99.99
2017-08-24T20:39:14.439Z,99.99
2017-08-24T20:44:10.139Z,99.99
2017-08-24T20:49:06.033Z,99.99
2017-08-24T20:54:02.745Z,99.99
2017-08-24T20:58:58.304Z,99.99
2017-08-24T21:03:54.101Z,99.99
2017-08-24T21:08:49.976Z,99.99
2017-08-24T21:13:45.926Z,99.99
2017-08-24T21:18:42.798Z,99.99
2017-08-24T21:23:39.258Z,99.99
2017-08-24T21:28:34.846Z,99.99
2017-08-24T21:33:30.725Z,99.99
2017-08-24T21:38:26.716Z,99.99
2017-08-24T21:43:22.628Z,99.99
2017-08-24T21:48:18.452Z,99.99
2017-08-24T21:53:15.180Z,99.99
2017-08-24T21:58:10.859Z,99.99
2017-08-24T22:03:07.752Z,99.99
2017-08-24T22:08:03.371Z,99.99
2017-08-24T22:12:59.387Z,99.99
2017-08-24T22:17:55.557Z,99.99
2017-08-24T22:22:52.014Z,99.99
2017-08-24T22:27:48.147Z,99.99
2017-08-24T22:32:44.372Z,99.99
2017-08-24T22:37:40.350Z,99.99
2017-08-24T22:42:37.180Z,99.99
2017-08-24T22:47:34.054Z,99.99
2017-08-24T22:52:30.388Z,99.99
2017-08-24T22:57:27.846Z,99.99
2017-08-24T23:02:23.690Z,99.99
2017-08-24T23:07:19.507Z,99.99
2017-08-24T23:12:15.304Z,99.99
2017-08-24T23:17:12.086Z,99.99
2017-08-24T23:22:07.974Z,99.99
2017-08-24T23:27:03.566Z,99.99
2017-08-24T23:31:59.132Z,99.99
2017-08-24T23:36:55.850Z,99.99
2017-08-24T23:41:52.813Z,99.99
2017-08-24T23:46:48.306Z,99.99
2017-08-24T23:51:45.185Z,99.99
2017-08-24T23:56:41.140Z,99.99
